sensor_id;sensor_type;location;lat;lon;timestamp;temperature;humidity
22795;DHT22;11564;50.920;11.612;2022-08-01T00:00:25;16.90;99.90
22795;DHT22;11564;50.920;11.612;2022-08-01T00:02:50;17.00;99.90
22795;DHT22;11564;50.920;11.612;2022-08-01T00:05:16;17.00;99.90
22795;DHT22;11564;50.920;11.612;2022-08-01T00:07:42;17.10;99.90
22795;DHT22;11564;50.920;11.612;2022-08-01T00:10:10;17.10;99.90
22795;DHT22;11564;50.920;11.612;2022-08-01T00:12:36;17.10;99.90
22795;DHT22;11564;50.920;11.612;2022-08-01T00:15:03;17.00;99.90
22795;DHT22;11564;50.920;11.612;2022-08-01T00:17:29;17.00;99.90
22795;DHT22;11564;50.920;11.612;2022-08-01T00:19:55;17.10;99.90
22795;DHT22;11564;50.920;11.612;2022-08-01T00:22:20;17.10;99.90
22795;DHT22;11564;50.920;11.612;2022-08-01T00:24:46;17.00;99.90
22795;DHT22;11564;50.920;11.612;2022-08-01T00:27:11;17.00;99.90
22795;DHT22;11564;50.920;11.612;2022-08-01T00:29:37;16.90;99.90
22795;DHT22;11564;50.920;11.612;2022-08-01T00:32:03;16.80;99.90
22795;DHT22;11564;50.920;11.612;2022-08-01T00:34:29;16.80;99.90
22795;DHT22;11564;50.920;11.612;2022-08-01T00:36:54;16.80;99.90
22795;DHT22;11564;50.920;11.612;2022-08-01T00:39:20;16.70;99.90
22795;DHT22;11564;50.920;11.612;2022-08-01T00:41:46;16.70;99.90
22795;DHT22;11564;50.920;11.612;2022-08-01T00:44:11;16.60;99.90
22795;DHT22;11564;50.920;11.612;2022-08-01T00:46:37;16.60;99.90
22795;DHT22;11564;50.920;11.612;2022-08-01T00:49:03;16.60;99.90
22795;DHT22;11564;50.920;11.612;2022-08-01T00:51:28;16.50;99.90
22795;DHT22;11564;50.920;11.612;2022-08-01T00:53:55;16.50;99.90
22795;DHT22;11564;50.920;11.612;2022-08-01T00:56:22;16.50;99.90
22795;DHT22;11564;50.920;11.612;2022-08-01T00:58:49;16.50;99.90
22795;DHT22;11564;50.920;11.612;2022-08-01T01:01:14;16.50;99.90
22795;DHT22;11564;50.920;11.612;2022-08-01T01:03:40;16.60;99.90
22795;DHT22;11564;50.920;11.612;2022-08-01T01:12:33;16.70;99.90
22795;DHT22;11564;50.920;11.612;2022-08-01T01:17:51;16.80;99.90
22795;DHT22;11564;50.920;11.612;2022-08-01T01:20:20;16.80;99.90
22795;DHT22;11564;50.920;11.612;2022-08-01T01:30:41;16.80;99.90
22795;DHT22;11564;50.920;11.612;2022-08-01T01:33:10;16.80;99.90
22795;DHT22;11564;50.920;11.612;2022-08-01T01:35:42;16.80;99.90
22795;DHT22;11564;50.920;11.612;2022-08-01T01:38:13;16.80;99.90
22795;DHT22;11564;50.920;11.612;2022-08-01T01:40:40;16.80;99.90
22795;DHT22;11564;50.920;11.612;2022-08-01T01:43:10;16.80;99.90
22795;DHT22;11564;50.920;11.612;2022-08-01T01:45:37;16.80;99.90
22795;DHT22;11564;50.920;11.612;2022-08-01T01:48:06;16.90;99.90
22795;DHT22;11564;50.920;11.612;2022-08-01T01:50:32;16.90;99.90
22795;DHT22;11564;50.920;11.612;2022-08-01T01:52:59;17.00;99.90
22795;DHT22;11564;50.920;11.612;2022-08-01T01:55:27;17.00;99.90
22795;DHT22;11564;50.920;11.612;2022-08-01T01:57:54;17.00;99.90
22795;DHT22;11564;50.920;11.612;2022-08-01T02:00:21;17.00;99.90
22795;DHT22;11564;50.920;11.612;2022-08-01T02:02:48;17.00;99.90
22795;DHT22;11564;50.920;11.612;2022-08-01T02:05:15;17.00;99.90
22795;DHT22;11564;50.920;11.612;2022-08-01T02:07:41;17.00;99.90
22795;DHT22;11564;50.920;11.612;2022-08-01T02:10:10;17.00;99.90
22795;DHT22;11564;50.920;11.612;2022-08-01T02:12:39;17.00;99.90
22795;DHT22;11564;50.920;11.612;2022-08-01T02:15:06;17.00;99.90
22795;DHT22;11564;50.920;11.612;2022-08-01T02:17:37;17.00;99.90
22795;DHT22;11564;50.920;11.612;2022-08-01T02:20:05;17.00;99.90
22795;DHT22;11564;50.920;11.612;2022-08-01T02:22:35;17.10;99.90
22795;DHT22;11564;50.920;11.612;2022-08-01T02:28:18;17.10;99.90
22795;DHT22;11564;50.920;11.612;2022-08-01T02:30:49;17.10;99.90
22795;DHT22;11564;50.920;11.612;2022-08-01T02:33:20;17.20;99.90
22795;DHT22;11564;50.920;11.612;2022-08-01T02:35:50;17.10;99.90
22795;DHT22;11564;50.920;11.612;2022-08-01T02:38:18;17.20;99.90
22795;DHT22;11564;50.920;11.612;2022-08-01T02:40:47;17.10;99.90
22795;DHT22;11564;50.920;11.612;2022-08-01T02:43:17;17.10;99.90
22795;DHT22;11564;50.920;11.612;2022-08-01T02:45:46;17.10;99.90
22795;DHT22;11564;50.920;11.612;2022-08-01T02:48:14;17.10;99.90
22795;DHT22;11564;50.920;11.612;2022-08-01T02:50:45;17.10;99.90
22795;DHT22;11564;50.920;11.612;2022-08-01T02:53:13;17.20;99.90
22795;DHT22;11564;50.920;11.612;2022-08-01T02:55:40;17.20;99.90
22795;DHT22;11564;50.920;11.612;2022-08-01T02:58:09;17.20;99.90
22795;DHT22;11564;50.920;11.612;2022-08-01T03:00:36;17.20;99.90
22795;DHT22;11564;50.920;11.612;2022-08-01T03:03:05;17.20;99.90
22795;DHT22;11564;50.920;11.612;2022-08-01T03:05:31;17.20;99.90
22795;DHT22;11564;50.920;11.612;2022-08-01T03:07:59;17.30;99.90
22795;DHT22;11564;50.920;11.612;2022-08-01T03:10:27;17.30;99.90
22795;DHT22;11564;50.920;11.612;2022-08-01T03:12:54;17.30;99.90
22795;DHT22;11564;50.920;11.612;2022-08-01T03:15:23;17.30;99.90
22795;DHT22;11564;50.920;11.612;2022-08-01T03:17:51;17.20;99.90
22795;DHT22;11564;50.920;11.612;2022-08-01T03:20:18;17.30;99.90
22795;DHT22;11564;50.920;11.612;2022-08-01T03:22:46;17.20;99.90
22795;DHT22;11564;50.920;11.612;2022-08-01T03:25:14;17.30;99.90
22795;DHT22;11564;50.920;11.612;2022-08-01T03:27:42;17.20;99.90
22795;DHT22;11564;50.920;11.612;2022-08-01T03:30:09;17.30;99.90
22795;DHT22;11564;50.920;11.612;2022-08-01T03:32:35;17.50;99.90
22795;DHT22;11564;50.920;11.612;2022-08-01T03:35:01;17.60;99.90
22795;DHT22;11564;50.920;11.612;2022-08-01T03:37:29;17.70;99.90
22795;DHT22;11564;50.920;11.612;2022-08-01T03:40:02;17.80;99.90
22795;DHT22;11564;50.920;11.612;2022-08-01T03:42:35;17.80;99.90
22795;DHT22;11564;50.920;11.612;2022-08-01T03:45:08;17.80;99.90
22795;DHT22;11564;50.920;11.612;2022-08-01T03:47:36;17.80;99.90
22795;DHT22;11564;50.920;11.612;2022-08-01T03:50:03;18.00;99.90
22795;DHT22;11564;50.920;11.612;2022-08-01T03:52:30;18.00;99.90
22795;DHT22;11564;50.920;11.612;2022-08-01T03:55:01;18.00;99.90
22795;DHT22;11564;50.920;11.612;2022-08-01T03:57:29;18.00;99.90
22795;DHT22;11564;50.920;11.612;2022-08-01T03:59:59;18.10;99.90
22795;DHT22;11564;50.920;11.612;2022-08-01T04:02:26;18.10;99.90
22795;DHT22;11564;50.920;11.612;2022-08-01T04:04:53;18.20;99.90
22795;DHT22;11564;50.920;11.612;2022-08-01T04:07:32;18.20;99.90
22795;DHT22;11564;50.920;11.612;2022-08-01T04:10:01;18.30;99.90
22795;DHT22;11564;50.920;11.612;2022-08-01T04:12:27;18.30;99.90
22795;DHT22;11564;50.920;11.612;2022-08-01T04:14:52;18.40;99.90
22795;DHT22;11564;50.920;11.612;2022-08-01T04:17:18;18.50;99.90
22795;DHT22;11564;50.920;11.612;2022-08-01T04:19:45;18.60;99.90
22795;DHT22;11564;50.920;11.612;2022-08-01T04:22:13;18.70;99.90
22795;DHT22;11564;50.920;11.612;2022-08-01T04:24:39;18.80;99.90
22795;DHT22;11564;50.920;11.612;2022-08-01T04:27:11;18.80;99.90
22795;DHT22;11564;50.920;11.612;2022-08-01T04:29:39;18.90;99.90
22795;DHT22;11564;50.920;11.612;2022-08-01T04:32:07;18.90;99.90
22795;DHT22;11564;50.920;11.612;2022-08-01T04:34:36;18.90;99.90
22795;DHT22;11564;50.920;11.612;2022-08-01T04:37:03;18.90;99.90
22795;DHT22;11564;50.920;11.612;2022-08-01T04:39:31;19.00;99.90
22795;DHT22;11564;50.920;11.612;2022-08-01T04:41:59;19.10;99.90
22795;DHT22;11564;50.920;11.612;2022-08-01T04:44:29;19.10;99.90
22795;DHT22;11564;50.920;11.612;2022-08-01T04:46:55;19.20;99.90
22795;DHT22;11564;50.920;11.612;2022-08-01T04:49:22;19.20;99.90
22795;DHT22;11564;50.920;11.612;2022-08-01T04:51:55;19.20;99.90
22795;DHT22;11564;50.920;11.612;2022-08-01T04:54:26;19.20;99.90
22795;DHT22;11564;50.920;11.612;2022-08-01T04:56:52;19.30;99.90
22795;DHT22;11564;50.920;11.612;2022-08-01T04:59:19;19.20;99.90
22795;DHT22;11564;50.920;11.612;2022-08-01T05:02:03;19.30;99.90
22795;DHT22;11564;50.920;11.612;2022-08-01T05:04:29;19.30;99.90
22795;DHT22;11564;50.920;11.612;2022-08-01T05:06:54;19.40;99.90
22795;DHT22;11564;50.920;11.612;2022-08-01T05:09:20;19.50;99.90
22795;DHT22;11564;50.920;11.612;2022-08-01T05:11:46;19.50;99.90
22795;DHT22;11564;50.920;11.612;2022-08-01T05:14:11;19.50;99.90
22795;DHT22;11564;50.920;11.612;2022-08-01T05:16:37;19.60;99.90
22795;DHT22;11564;50.920;11.612;2022-08-01T05:19:02;19.60;99.90
22795;DHT22;11564;50.920;11.612;2022-08-01T05:21:28;19.70;99.90
22795;DHT22;11564;50.920;11.612;2022-08-01T05:23:53;19.70;99.90
22795;DHT22;11564;50.920;11.612;2022-08-01T05:26:19;19.60;99.90
22795;DHT22;11564;50.920;11.612;2022-08-01T05:28:44;19.70;99.90
22795;DHT22;11564;50.920;11.612;2022-08-01T05:31:10;19.70;99.90
22795;DHT22;11564;50.920;11.612;2022-08-01T05:33:36;19.70;99.90
22795;DHT22;11564;50.920;11.612;2022-08-01T05:36:01;19.70;99.90
22795;DHT22;11564;50.920;11.612;2022-08-01T05:38:27;19.80;99.90
22795;DHT22;11564;50.920;11.612;2022-08-01T05:40:52;19.80;99.90
22795;DHT22;11564;50.920;11.612;2022-08-01T05:43:18;19.80;99.90
22795;DHT22;11564;50.920;11.612;2022-08-01T05:45:44;19.90;99.90
22795;DHT22;11564;50.920;11.612;2022-08-01T05:48:11;20.00;99.90
22795;DHT22;11564;50.920;11.612;2022-08-01T05:50:37;20.00;99.90
22795;DHT22;11564;50.920;11.612;2022-08-01T05:53:02;20.00;99.90
22795;DHT22;11564;50.920;11.612;2022-08-01T05:55:28;20.00;99.90
22795;DHT22;11564;50.920;11.612;2022-08-01T05:57:54;20.00;99.90
22795;DHT22;11564;50.920;11.612;2022-08-01T06:00:19;19.90;99.90
22795;DHT22;11564;50.920;11.612;2022-08-01T06:02:45;19.90;99.90
22795;DHT22;11564;50.920;11.612;2022-08-01T06:05:11;19.90;99.90
22795;DHT22;11564;50.920;11.612;2022-08-01T06:07:37;19.90;99.90
22795;DHT22;11564;50.920;11.612;2022-08-01T06:10:04;20.00;99.90
22795;DHT22;11564;50.920;11.612;2022-08-01T06:12:33;20.10;99.90
22795;DHT22;11564;50.920;11.612;2022-08-01T06:14:58;20.10;99.90
22795;DHT22;11564;50.920;11.612;2022-08-01T06:17:24;20.10;99.90
22795;DHT22;11564;50.920;11.612;2022-08-01T06:19:49;20.20;99.90
22795;DHT22;11564;50.920;11.612;2022-08-01T06:22:15;20.20;99.90
22795;DHT22;11564;50.920;11.612;2022-08-01T06:24:40;20.30;99.90
22795;DHT22;11564;50.920;11.612;2022-08-01T06:27:06;20.30;99.90
22795;DHT22;11564;50.920;11.612;2022-08-01T06:29:32;20.20;99.90
22795;DHT22;11564;50.920;11.612;2022-08-01T06:31:58;20.30;99.90
22795;DHT22;11564;50.920;11.612;2022-08-01T06:34:23;20.30;99.90
22795;DHT22;11564;50.920;11.612;2022-08-01T06:36:49;20.30;99.90
22795;DHT22;11564;50.920;11.612;2022-08-01T06:39:15;20.40;99.90
22795;DHT22;11564;50.920;11.612;2022-08-01T06:41:40;20.20;99.90
22795;DHT22;11564;50.920;11.612;2022-08-01T06:44:12;20.30;99.90
22795;DHT22;11564;50.920;11.612;2022-08-01T06:46:37;20.30;99.90
22795;DHT22;11564;50.920;11.612;2022-08-01T06:49:03;20.30;99.90
22795;DHT22;11564;50.920;11.612;2022-08-01T06:51:29;20.40;99.90
22795;DHT22;11564;50.920;11.612;2022-08-01T06:53:55;20.40;99.90
22795;DHT22;11564;50.920;11.612;2022-08-01T06:56:21;20.40;99.90
22795;DHT22;11564;50.920;11.612;2022-08-01T06:58:46;20.10;99.90
22795;DHT22;11564;50.920;11.612;2022-08-01T07:01:12;19.60;99.90
22795;DHT22;11564;50.920;11.612;2022-08-01T07:03:38;19.30;99.90
22795;DHT22;11564;50.920;11.612;2022-08-01T07:06:04;18.90;99.90
22795;DHT22;11564;50.920;11.612;2022-08-01T07:08:29;18.70;99.90
22795;DHT22;11564;50.920;11.612;2022-08-01T07:10:55;18.70;99.90
22795;DHT22;11564;50.920;11.612;2022-08-01T07:13:25;18.80;99.90
22795;DHT22;11564;50.920;11.612;2022-08-01T07:15:51;19.00;99.90
22795;DHT22;11564;50.920;11.612;2022-08-01T07:18:17;19.30;99.90
22795;DHT22;11564;50.920;11.612;2022-08-01T07:20:42;19.50;99.90
22795;DHT22;11564;50.920;11.612;2022-08-01T07:23:14;19.80;99.90
22795;DHT22;11564;50.920;11.612;2022-08-01T07:25:39;19.90;99.90
22795;DHT22;11564;50.920;11.612;2022-08-01T07:28:05;20.00;99.90
22795;DHT22;11564;50.920;11.612;2022-08-01T07:30:31;20.00;99.90
22795;DHT22;11564;50.920;11.612;2022-08-01T07:32:56;20.00;99.90
22795;DHT22;11564;50.920;11.612;2022-08-01T07:35:22;20.20;99.90
22795;DHT22;11564;50.920;11.612;2022-08-01T07:37:48;20.50;99.90
22795;DHT22;11564;50.920;11.612;2022-08-01T07:40:13;20.70;99.90
22795;DHT22;11564;50.920;11.612;2022-08-01T07:42:39;20.70;99.90
22795;DHT22;11564;50.920;11.612;2022-08-01T07:45:09;20.60;99.90
22795;DHT22;11564;50.920;11.612;2022-08-01T07:47:35;20.50;99.90
22795;DHT22;11564;50.920;11.612;2022-08-01T07:50:01;20.30;99.90
22795;DHT22;11564;50.920;11.612;2022-08-01T07:52:27;20.40;99.90
22795;DHT22;11564;50.920;11.612;2022-08-01T07:54:52;20.50;99.90
22795;DHT22;11564;50.920;11.612;2022-08-01T07:57:18;20.70;99.90
22795;DHT22;11564;50.920;11.612;2022-08-01T07:59:43;20.80;99.90
22795;DHT22;11564;50.920;11.612;2022-08-01T08:02:09;20.80;99.90
22795;DHT22;11564;50.920;11.612;2022-08-01T08:04:34;20.70;99.90
22795;DHT22;11564;50.920;11.612;2022-08-01T08:07:00;20.60;99.90
22795;DHT22;11564;50.920;11.612;2022-08-01T08:09:25;20.70;99.90
22795;DHT22;11564;50.920;11.612;2022-08-01T08:11:51;20.80;99.90
22795;DHT22;11564;50.920;11.612;2022-08-01T08:14:17;20.70;99.90
22795;DHT22;11564;50.920;11.612;2022-08-01T08:16:43;20.70;99.90
22795;DHT22;11564;50.920;11.612;2022-08-01T08:19:09;20.60;99.90
22795;DHT22;11564;50.920;11.612;2022-08-01T08:21:34;20.50;99.90
22795;DHT22;11564;50.920;11.612;2022-08-01T08:24:00;20.40;99.90
22795;DHT22;11564;50.920;11.612;2022-08-01T08:26:44;20.40;99.90
22795;DHT22;11564;50.920;11.612;2022-08-01T08:29:09;20.50;99.90
22795;DHT22;11564;50.920;11.612;2022-08-01T08:31:35;20.60;99.90
22795;DHT22;11564;50.920;11.612;2022-08-01T08:34:00;20.70;99.90
22795;DHT22;11564;50.920;11.612;2022-08-01T08:36:26;20.80;99.90
22795;DHT22;11564;50.920;11.612;2022-08-01T08:38:52;21.10;99.90
22795;DHT22;11564;50.920;11.612;2022-08-01T08:41:17;21.50;99.90
22795;DHT22;11564;50.920;11.612;2022-08-01T08:43:43;21.90;99.90
22795;DHT22;11564;50.920;11.612;2022-08-01T08:46:08;22.50;99.90
22795;DHT22;11564;50.920;11.612;2022-08-01T08:48:37;23.10;99.90
22795;DHT22;11564;50.920;11.612;2022-08-01T08:51:02;23.30;99.90
22795;DHT22;11564;50.920;11.612;2022-08-01T08:53:28;23.00;99.90
22795;DHT22;11564;50.920;11.612;2022-08-01T08:55:56;22.60;99.90
22795;DHT22;11564;50.920;11.612;2022-08-01T08:58:22;22.40;99.90
22795;DHT22;11564;50.920;11.612;2022-08-01T09:00:49;22.50;99.90
22795;DHT22;11564;50.920;11.612;2022-08-01T09:03:14;22.20;99.90
22795;DHT22;11564;50.920;11.612;2022-08-01T09:05:40;21.90;99.90
22795;DHT22;11564;50.920;11.612;2022-08-01T09:08:06;21.80;99.90
22795;DHT22;11564;50.920;11.612;2022-08-01T09:10:32;21.60;99.90
22795;DHT22;11564;50.920;11.612;2022-08-01T09:13:01;21.60;99.90
22795;DHT22;11564;50.920;11.612;2022-08-01T09:15:40;21.60;99.90
22795;DHT22;11564;50.920;11.612;2022-08-01T09:18:06;21.60;99.90
22795;DHT22;11564;50.920;11.612;2022-08-01T09:20:31;21.50;99.90
22795;DHT22;11564;50.920;11.612;2022-08-01T09:23:00;21.60;99.90
22795;DHT22;11564;50.920;11.612;2022-08-01T09:25:25;21.60;99.90
22795;DHT22;11564;50.920;11.612;2022-08-01T09:28:04;22.00;99.90
22795;DHT22;11564;50.920;11.612;2022-08-01T09:30:36;22.30;99.90
22795;DHT22;11564;50.920;11.612;2022-08-01T09:33:03;22.50;99.90
22795;DHT22;11564;50.920;11.612;2022-08-01T09:35:29;22.70;99.90
22795;DHT22;11564;50.920;11.612;2022-08-01T09:40:51;23.10;99.90
22795;DHT22;11564;50.920;11.612;2022-08-01T09:43:17;23.50;99.90
22795;DHT22;11564;50.920;11.612;2022-08-01T09:45:43;23.40;99.90
22795;DHT22;11564;50.920;11.612;2022-08-01T09:48:09;22.90;99.90
22795;DHT22;11564;50.920;11.612;2022-08-01T09:50:38;22.70;99.90
22795;DHT22;11564;50.920;11.612;2022-08-01T09:53:04;22.80;99.90
22795;DHT22;11564;50.920;11.612;2022-08-01T09:55:30;23.00;99.90
22795;DHT22;11564;50.920;11.612;2022-08-01T09:57:56;23.20;99.90
22795;DHT22;11564;50.920;11.612;2022-08-01T10:00:23;23.10;99.90
22795;DHT22;11564;50.920;11.612;2022-08-01T10:02:48;23.10;99.90
22795;DHT22;11564;50.920;11.612;2022-08-01T10:05:14;23.20;99.90
22795;DHT22;11564;50.920;11.612;2022-08-01T10:08:02;23.30;99.90
22795;DHT22;11564;50.920;11.612;2022-08-01T10:10:25;23.30;99.90
22795;DHT22;11564;50.920;11.612;2022-08-01T10:12:51;23.00;99.90
22795;DHT22;11564;50.920;11.612;2022-08-01T10:15:17;23.10;99.90
22795;DHT22;11564;50.920;11.612;2022-08-01T10:17:55;23.30;99.90
22795;DHT22;11564;50.920;11.612;2022-08-01T10:20:26;23.20;99.90
22795;DHT22;11564;50.920;11.612;2022-08-01T10:22:53;23.50;99.90
22795;DHT22;11564;50.920;11.612;2022-08-01T10:25:19;23.30;99.90
22795;DHT22;11564;50.920;11.612;2022-08-01T10:27:45;23.30;99.90
22795;DHT22;11564;50.920;11.612;2022-08-01T10:30:14;23.40;99.90
22795;DHT22;11564;50.920;11.612;2022-08-01T10:32:39;23.40;99.90
22795;DHT22;11564;50.920;11.612;2022-08-01T10:35:07;23.50;99.90
22795;DHT22;11564;50.920;11.612;2022-08-01T10:37:34;23.70;99.90
22795;DHT22;11564;50.920;11.612;2022-08-01T10:40:03;23.80;99.90
22795;DHT22;11564;50.920;11.612;2022-08-01T10:42:30;23.70;99.70
22795;DHT22;11564;50.920;11.612;2022-08-01T10:44:55;23.70;99.90
22795;DHT22;11564;50.920;11.612;2022-08-01T10:47:25;23.70;99.70
22795;DHT22;11564;50.920;11.612;2022-08-01T10:49:56;23.80;99.30
22795;DHT22;11564;50.920;11.612;2022-08-01T10:52:25;23.70;99.20
22795;DHT22;11564;50.920;11.612;2022-08-01T10:55:01;23.30;99.20
22795;DHT22;11564;50.920;11.612;2022-08-01T10:57:40;23.40;98.90
22795;DHT22;11564;50.920;11.612;2022-08-01T11:00:06;23.70;98.90
22795;DHT22;11564;50.920;11.612;2022-08-01T11:02:32;24.10;97.70
22795;DHT22;11564;50.920;11.612;2022-08-01T11:05:07;24.40;97.20
22795;DHT22;11564;50.920;11.612;2022-08-01T11:07:37;24.60;96.70
22795;DHT22;11564;50.920;11.612;2022-08-01T11:10:10;24.70;95.90
22795;DHT22;11564;50.920;11.612;2022-08-01T11:12:40;24.30;95.30
22795;DHT22;11564;50.920;11.612;2022-08-01T11:23:00;24.50;94.00
22795;DHT22;11564;50.920;11.612;2022-08-01T11:25:18;24.80;93.50
22795;DHT22;11564;50.920;11.612;2022-08-01T11:27:44;24.70;92.60
22795;DHT22;11564;50.920;11.612;2022-08-01T11:35:11;24.80;92.80
22795;DHT22;11564;50.920;11.612;2022-08-01T11:37:36;25.00;92.80
22795;DHT22;11564;50.920;11.612;2022-08-01T11:40:22;24.90;92.20
22795;DHT22;11564;50.920;11.612;2022-08-01T11:43:15;25.00;91.50
22795;DHT22;11564;50.920;11.612;2022-08-01T11:45:49;25.20;91.90
22795;DHT22;11564;50.920;11.612;2022-08-01T11:48:22;25.50;90.90
22795;DHT22;11564;50.920;11.612;2022-08-01T11:50:49;25.50;90.60
22795;DHT22;11564;50.920;11.612;2022-08-01T11:53:15;25.30;91.00
22795;DHT22;11564;50.920;11.612;2022-08-01T11:55:45;25.30;90.50
22795;DHT22;11564;50.920;11.612;2022-08-01T11:58:11;25.30;90.80
22795;DHT22;11564;50.920;11.612;2022-08-01T12:00:36;25.50;90.80
22795;DHT22;11564;50.920;11.612;2022-08-01T12:03:03;25.80;90.10
22795;DHT22;11564;50.920;11.612;2022-08-01T12:05:29;26.40;89.90
22795;DHT22;11564;50.920;11.612;2022-08-01T12:07:56;26.60;87.50
22795;DHT22;11564;50.920;11.612;2022-08-01T12:10:26;26.80;86.60
22795;DHT22;11564;50.920;11.612;2022-08-01T12:12:58;26.40;85.50
22795;DHT22;11564;50.920;11.612;2022-08-01T12:15:24;26.20;87.60
22795;DHT22;11564;50.920;11.612;2022-08-01T12:17:51;25.70;87.80
22795;DHT22;11564;50.920;11.612;2022-08-01T12:20:20;25.60;87.90
22795;DHT22;11564;50.920;11.612;2022-08-01T12:22:46;25.40;87.40
22795;DHT22;11564;50.920;11.612;2022-08-01T12:25:16;25.40;87.80
22795;DHT22;11564;50.920;11.612;2022-08-01T12:27:42;25.40;88.20
22795;DHT22;11564;50.920;11.612;2022-08-01T12:30:08;25.40;87.40
22795;DHT22;11564;50.920;11.612;2022-08-01T12:32:35;25.50;87.50
22795;DHT22;11564;50.920;11.612;2022-08-01T12:35:03;25.80;86.50
22795;DHT22;11564;50.920;11.612;2022-08-01T12:37:28;25.90;87.20
22795;DHT22;11564;50.920;11.612;2022-08-01T12:39:54;26.50;85.20
22795;DHT22;11564;50.920;11.612;2022-08-01T12:42:20;26.70;83.50
22795;DHT22;11564;50.920;11.612;2022-08-01T12:44:47;26.80;83.00
22795;DHT22;11564;50.920;11.612;2022-08-01T12:47:14;27.00;82.90
22795;DHT22;11564;50.920;11.612;2022-08-01T12:49:41;27.20;81.80
22795;DHT22;11564;50.920;11.612;2022-08-01T12:52:07;27.20;82.50
22795;DHT22;11564;50.920;11.612;2022-08-01T12:57:23;27.70;79.70
22795;DHT22;11564;50.920;11.612;2022-08-01T12:59:52;27.90;80.00
22795;DHT22;11564;50.920;11.612;2022-08-01T13:02:17;27.90;78.80
22795;DHT22;11564;50.920;11.612;2022-08-01T13:04:50;27.90;78.90
22795;DHT22;11564;50.920;11.612;2022-08-01T13:07:16;27.30;78.90
22795;DHT22;11564;50.920;11.612;2022-08-01T13:09:51;27.90;78.90
22795;DHT22;11564;50.920;11.612;2022-08-01T13:12:17;27.20;77.90
22795;DHT22;11564;50.920;11.612;2022-08-01T13:14:42;26.90;79.20
22795;DHT22;11564;50.920;11.612;2022-08-01T13:17:08;27.60;78.60
22795;DHT22;11564;50.920;11.612;2022-08-01T13:19:45;28.30;77.30
22795;DHT22;11564;50.920;11.612;2022-08-01T13:22:12;29.00;75.90
22795;DHT22;11564;50.920;11.612;2022-08-01T13:24:37;31.50;70.20
22795;DHT22;11564;50.920;11.612;2022-08-01T13:27:03;32.40;64.30
22795;DHT22;11564;50.920;11.612;2022-08-01T13:29:30;31.00;65.50
22795;DHT22;11564;50.920;11.612;2022-08-01T13:31:57;29.20;68.50
22795;DHT22;11564;50.920;11.612;2022-08-01T13:34:30;29.10;68.70
22795;DHT22;11564;50.920;11.612;2022-08-01T13:36:55;29.40;69.00
22795;DHT22;11564;50.920;11.612;2022-08-01T13:39:21;31.00;64.80
22795;DHT22;11564;50.920;11.612;2022-08-01T13:42:05;33.90;61.10
22795;DHT22;11564;50.920;11.612;2022-08-01T13:44:30;35.30;57.50
22795;DHT22;11564;50.920;11.612;2022-08-01T13:46:56;34.40;57.80
22795;DHT22;11564;50.920;11.612;2022-08-01T13:49:21;31.70;59.40
22795;DHT22;11564;50.920;11.612;2022-08-01T13:51:47;30.00;61.90
22795;DHT22;11564;50.920;11.612;2022-08-01T13:54:15;30.00;62.70
22795;DHT22;11564;50.920;11.612;2022-08-01T13:56:40;29.50;63.50
22795;DHT22;11564;50.920;11.612;2022-08-01T13:59:06;28.80;65.70
22795;DHT22;11564;50.920;11.612;2022-08-01T14:01:33;28.90;66.50
22795;DHT22;11564;50.920;11.612;2022-08-01T14:03:58;30.00;63.90
22795;DHT22;11564;50.920;11.612;2022-08-01T14:06:24;33.40;60.10
22795;DHT22;11564;50.920;11.612;2022-08-01T14:08:49;34.70;56.70
22795;DHT22;11564;50.920;11.612;2022-08-01T14:11:15;35.40;53.60
22795;DHT22;11564;50.920;11.612;2022-08-01T14:13:41;35.50;52.80
22795;DHT22;11564;50.920;11.612;2022-08-01T14:16:06;36.10;52.20
22795;DHT22;11564;50.920;11.612;2022-08-01T14:18:32;35.50;50.90
22795;DHT22;11564;50.920;11.612;2022-08-01T14:20:58;35.70;51.60
22795;DHT22;11564;50.920;11.612;2022-08-01T14:23:23;35.00;51.20
22795;DHT22;11564;50.920;11.612;2022-08-01T14:25:49;35.20;51.40
22795;DHT22;11564;50.920;11.612;2022-08-01T14:28:14;35.50;50.20
22795;DHT22;11564;50.920;11.612;2022-08-01T14:30:40;35.50;50.20
22795;DHT22;11564;50.920;11.612;2022-08-01T14:33:09;36.00;50.10
22795;DHT22;11564;50.920;11.612;2022-08-01T14:35:34;36.70;48.90
22795;DHT22;11564;50.920;11.612;2022-08-01T14:38:00;37.30;48.50
22795;DHT22;11564;50.920;11.612;2022-08-01T14:40:25;39.30;46.00
22795;DHT22;11564;50.920;11.612;2022-08-01T14:42:51;40.10;44.40
22795;DHT22;11564;50.920;11.612;2022-08-01T14:45:16;38.80;46.60
22795;DHT22;11564;50.920;11.612;2022-08-01T14:47:42;36.30;47.10
22795;DHT22;11564;50.920;11.612;2022-08-01T14:50:09;33.70;51.20
22795;DHT22;11564;50.920;11.612;2022-08-01T14:52:35;33.00;52.20
22795;DHT22;11564;50.920;11.612;2022-08-01T14:55:01;32.90;53.10
22795;DHT22;11564;50.920;11.612;2022-08-01T14:57:26;32.60;53.90
22795;DHT22;11564;50.920;11.612;2022-08-01T14:59:52;32.60;53.50
22795;DHT22;11564;50.920;11.612;2022-08-01T15:02:17;31.70;54.90
22795;DHT22;11564;50.920;11.612;2022-08-01T15:04:44;33.30;53.20
22795;DHT22;11564;50.920;11.612;2022-08-01T15:07:10;34.00;51.50
22795;DHT22;11564;50.920;11.612;2022-08-01T15:09:36;36.10;48.40
22795;DHT22;11564;50.920;11.612;2022-08-01T15:12:01;36.10;48.30
22795;DHT22;11564;50.920;11.612;2022-08-01T15:14:27;35.30;49.50
22795;DHT22;11564;50.920;11.612;2022-08-01T15:17:11;35.20;49.10
22795;DHT22;11564;50.920;11.612;2022-08-01T15:19:37;35.20;49.20
22795;DHT22;11564;50.920;11.612;2022-08-01T15:22:03;34.40;50.40
22795;DHT22;11564;50.920;11.612;2022-08-01T15:24:29;32.90;54.20
22795;DHT22;11564;50.920;11.612;2022-08-01T15:26:54;31.20;57.70
22795;DHT22;11564;50.920;11.612;2022-08-01T15:29:20;29.90;60.50
22795;DHT22;11564;50.920;11.612;2022-08-01T15:31:45;31.30;59.20
22795;DHT22;11564;50.920;11.612;2022-08-01T15:34:11;32.20;57.80
22795;DHT22;11564;50.920;11.612;2022-08-01T15:36:36;32.20;56.10
22795;DHT22;11564;50.920;11.612;2022-08-01T15:39:02;32.60;56.60
22795;DHT22;11564;50.920;11.612;2022-08-01T15:41:28;34.70;53.60
22795;DHT22;11564;50.920;11.612;2022-08-01T15:43:53;34.70;53.60
22795;DHT22;11564;50.920;11.612;2022-08-01T15:46:19;34.60;53.80
22795;DHT22;11564;50.920;11.612;2022-08-01T15:48:44;34.40;53.30
22795;DHT22;11564;50.920;11.612;2022-08-01T15:51:10;34.70;53.50
22795;DHT22;11564;50.920;11.612;2022-08-01T15:53:35;36.10;52.10